KMTP/MTP METAR and TAF weather

Enter ICAO airport designator
Station Type Date Time Source
KMTP METAR 2020/01/18 15:54 UTC NOAA

KMTP 181554Z AUTO 11003KT M05/M14 A3048 RMK AO1 SLP322 T10501139 $


Station Type Date Time Source
KMTP Decoded METAR 2020/01/18 15:54 UTC NOAA

MONTAUK AIRPORT, NY, United States (KMTP) 41-04N 071-55W 2M
Jan 18, 2020 - 10:54 AM EST / 2020.01.18 1554 UTC
Wind: from the ESE (110 degrees) at 3 MPH (3 KT):0
Temperature: 23.0 F (-5.0 C)
Dew Point: 7.0 F (-13.9 C)
Relative Humidity: 49%
Pressure (altimeter): 30.48 in. Hg (1032 hPa)
ob: KMTP 181554Z AUTO 11003KT M05/M14 A3048 RMK AO1 SLP322 T10501139
cycle: 16

Station Type Date Time Source
KMTP TAF UTC NOAA

Error!

Example: see airport list